Time;durP1;ratioP1;P1;durP2;ratioP2;P2;SDS_P1;SDS_P2;PMS_P1;PMS_P2;Temp;Humidity;BMP_temperature;BMP_pressure;BME280_temperature;BME280_humidity;BME280_pressure;Samples;Min_cycle;Max_cycle;Signal;HPM_P1;HPM_P2
2022/05/27 07:41:54;;;;;;;;;6.67;6.00;;;;;20.19;53.99;102283.78;5071007;27;45536;-75
2022/05/27 07:44:19;;;;;;;;;5.67;3.00;;;;;20.31;53.98;102282.88;5051335;28;45372;-78
2022/05/27 07:46:45;;;;;;;;;4.33;4.00;;;;;20.50;53.24;102281.56;5067515;28;45403;-79
2022/05/27 07:49:11;;;;;;;;;9.00;6.00;;;;;20.73;52.86;102282.63;5057604;28;45392;-76
2022/05/27 07:51:36;;;;;;;;;4.00;4.00;;;;;21.01;52.77;102279.72;5064184;27;46021;-77
2022/05/27 07:54:02;;;;;;;;;5.33;5.33;;;;;21.28;51.88;102270.50;5060434;27;45462;-75
2022/05/27 07:56:27;;;;;;;;;5.33;4.67;;;;;21.54;50.96;102265.81;5067623;27;45691;-77
2022/05/27 07:58:53;;;;;;;;;7.00;5.33;;;;;21.79;50.62;102263.94;5071925;28;45632;-84
2022/05/27 08:01:18;;;;;;;;;5.00;5.00;;;;;22.03;50.77;102260.28;5054062;28;46159;-80
2022/05/27 08:03:44;;;;;;;;;5.00;5.00;;;;;22.25;50.57;102267.53;5052389;28;45487;-83
2022/05/27 08:06:10;;;;;;;;;4.67;4.00;;;;;22.47;50.13;102257.72;5057196;28;45542;-84
2022/05/27 08:08:36;;;;;;;;;6.00;5.00;;;;;22.68;49.85;102272.34;5060346;28;45506;-85
2022/05/27 08:11:02;;;;;;;;;4.00;4.00;;;;;22.86;49.25;102264.56;5056357;28;46220;-86
2022/05/27 08:13:27;;;;;;;;;7.00;5.00;;;;;23.06;48.80;102262.03;5056677;27;45458;-88
2022/05/27 08:15:53;;;;;;;;;5.00;5.00;;;;;23.21;48.67;102258.03;5053608;28;45553;-84
2022/05/27 08:18:20;;;;;;;;;5.33;4.00;;;;;23.37;48.75;102262.16;5053506;28;45344;-87
2022/05/27 08:20:45;;;;;;;;;6.00;6.00;;;;;23.52;48.11;102260.88;5060040;28;46127;-83
2022/05/27 08:23:11;;;;;;;;;4.00;4.00;;;;;23.65;47.68;102251.69;5065337;28;45595;-86
2022/05/27 08:25:37;;;;;;;;;6.00;4.67;;;;;23.77;47.62;102250.63;5052164;28;47288;-87
2022/05/27 08:28:03;;;;;;;;;5.67;3.67;;;;;23.89;47.49;102255.94;5056809;28;53234;-87
2022/05/27 08:30:31;;;;;;;;;4.33;4.33;;;;;23.99;47.14;102254.16;5058187;28;46610;-87
2022/05/27 08:32:57;;;;;;;;;4.67;3.33;;;;;24.09;47.01;102262.38;5062467;28;45451;-87
2022/05/27 08:38:14;;;;;;;;;4.67;4.00;;;;;24.30;46.47;102256.03;5068285;28;45485;-85
2022/05/27 08:41:01;;;;;;;;;5.00;5.00;;;;;24.40;46.15;102259.63;5064758;28;46935;-86
2022/05/27 08:43:37;;;;;;;;;4.00;4.00;;;;;24.47;45.84;102254.50;5053187;28;45595;-85
2022/05/27 08:46:41;;;;;;;;;4.33;3.00;;;;;24.55;45.77;102260.09;5058046;28;45992;-85
2022/05/27 08:49:11;;;;;;;;;5.00;4.33;;;;;24.64;45.58;102261.13;5061607;28;53186;-81
2022/05/27 08:51:50;;;;;;;;;3.67;3.67;;;;;24.74;45.50;102263.88;5053262;28;46901;-81
2022/05/27 08:54:23;;;;;;;;;3.00;3.00;;;;;24.80;45.05;102268.72;5043814;28;45804;-76
2022/05/27 08:59:40;;;;;;;;;5.33;3.67;;;;;24.97;44.78;102260.94;5047309;28;45521;-75
2022/05/27 09:02:12;;;;;;;;;4.00;4.00;;;;;25.02;44.71;102265.94;5047471;28;45563;-76
2022/05/27 09:04:43;;;;;;;;;5.33;5.00;;;;;25.07;44.57;102266.34;5056910;28;45554;-75
2022/05/27 09:07:22;;;;;;;;;8.00;6.67;;;;;25.15;44.19;102266.53;5036000;28;45446;-75
2022/05/27 09:09:49;;;;;;;;;6.67;6.67;;;;;25.13;44.32;102266.66;5039789;28;45430;-76
2022/05/27 09:12:26;;;;;;;;;5.00;5.00;;;;;25.11;43.57;102262.38;5042426;28;45357;-77
2022/05/27 09:15:02;;;;;;;;;6.33;5.33;;;;;25.15;43.18;102254.78;5042221;28;45464;-79
2022/05/27 09:17:42;;;;;;;;;8.00;8.00;;;;;25.15;42.61;102266.53;5046786;28;45382;-81
2022/05/27 09:20:30;;;;;;;;;5.67;5.67;;;;;25.15;42.55;102260.22;5043879;28;45423;-81
2022/05/27 09:22:59;;;;;;;;;4.00;4.00;;;;;25.11;42.70;102271.38;5048425;28;46221;-81
2022/05/27 09:25:39;;;;;;;;;4.00;4.00;;;;;25.12;42.70;102264.06;5042370;28;45566;-80
2022/05/27 09:28:14;;;;;;;;;5.67;5.67;;;;;25.08;42.66;102257.22;5044849;28;45458;-77
2022/05/27 09:30:41;;;;;;;;;5.33;4.67;;;;;25.07;42.25;102264.50;5043434;28;45436;-77
2022/05/27 09:33:10;;;;;;;;;4.67;3.00;;;;;25.04;42.45;102262.06;5042440;28;46131;-77
2022/05/27 09:35:37;;;;;;;;;6.00;5.00;;;;;25.03;42.52;102264.94;5046174;28;45589;-78
2022/05/27 09:38:06;;;;;;;;;9.00;7.33;;;;;25.02;42.54;102260.50;5041948;28;45418;-78
2022/05/27 09:40:38;;;;;;;;;7.33;7.33;;;;;24.97;42.50;102269.94;5036570;28;45521;-77
2022/05/27 09:43:21;;;;;;;;;8.00;7.33;;;;;24.93;42.42;102267.66;5045725;28;45768;-79
2022/05/27 09:46:00;;;;;;;;;6.67;5.33;;;;;24.89;42.64;102260.78;5038565;28;45640;-79
2022/05/27 09:48:26;;;;;;;;;8.00;6.33;;;;;24.88;42.63;102269.94;5047821;28;45630;-79
2022/05/27 09:50:52;;;;;;;;;8.33;7.00;;;;;24.87;42.61;102263.63;5043744;28;45360;-80
2022/05/27 09:53:22;;;;;;;;;5.67;5.67;;;;;24.88;42.43;102267.22;5045991;28;45678;-79
2022/05/27 09:56:08;;;;;;;;;6.33;6.33;;;;;24.89;43.05;102261.63;5046857;28;45589;-79
2022/05/27 09:58:42;;;;;;;;;5.00;5.00;;;;;24.91;42.50;102265.06;5047109;28;45507;-79
2022/05/27 10:01:24;;;;;;;;;7.33;7.33;;;;;24.93;42.68;102262.22;5038614;28;46158;-80
2022/05/27 10:04:03;;;;;;;;;5.33;5.33;;;;;24.94;42.74;102262.09;5034499;28;45720;-80
2022/05/27 10:06:30;;;;;;;;;7.67;6.33;;;;;24.95;42.79;102261.06;5041539;28;45356;-80
2022/05/27 10:08:58;;;;;;;;;9.33;7.67;;;;;24.99;42.63;102267.06;5044893;28;51799;-77
2022/05/27 10:11:35;;;;;;;;;6.67;6.67;;;;;25.00;42.69;102266.94;5037248;28;45840;-77
2022/05/27 10:14:10;;;;;;;;;8.00;7.00;;;;;25.03;42.75;102262.22;5035339;28;45436;-77
2022/05/27 10:16:38;;;;;;;;;7.00;6.00;;;;;25.04;42.47;102253.94;5036429;28;45467;-77
2022/05/27 10:19:08;;;;;;;;;6.67;6.67;;;;;25.06;42.64;102256.50;5041823;28;45593;-77
2022/05/27 10:21:48;;;;;;;;;6.00;6.00;;;;;25.09;42.69;102258.94;5034676;28;45372;-77
2022/05/27 10:24:37;;;;;;;;;6.33;3.00;;;;;25.10;42.50;102263.38;5037048;28;46114;-77
2022/05/27 10:27:17;;;;;;;;;8.67;7.00;;;;;25.13;42.50;102260.34;5036705;28;47196;-79
2022/05/27 10:29:50;;;;;;;;;5.00;5.00;;;;;25.15;42.68;102263.81;5035006;28;45399;-79
2022/05/27 10:32:28;;;;;;;;;6.00;6.00;;;;;25.17;42.60;102250.91;5035780;28;47062;-78
2022/05/27 10:34:54;;;;;;;;;6.00;5.67;;;;;25.20;42.69;102266.06;5040901;28;45530;-79
2022/05/27 10:37:34;;;;;;;;;4.00;4.00;;;;;25.21;42.50;102265.06;5034957;28;45452;-76
2022/05/27 10:40:00;;;;;;;;;5.00;5.00;;;;;25.22;42.83;102253.22;5038598;28;45495;-76
2022/05/27 10:42:41;;;;;;;;;4.00;4.00;;;;;25.21;42.67;102248.75;5036114;28;45627;-75
2022/05/27 10:45:15;;;;;;;;;6.67;6.67;;;;;25.22;42.78;102250.50;5030683;28;46716;-76
2022/05/27 10:48:03;;;;;;;;;6.00;4.33;;;;;25.22;42.57;102254.06;5037439;28;45440;-75
2022/05/27 10:50:45;;;;;;;;;4.00;3.67;;;;;25.25;42.69;102248.34;5036644;28;47057;-75
2022/05/27 10:53:40;;;;;;;;;5.67;5.67;;;;;25.32;42.49;102247.75;5041896;28;45406;-78
2022/05/27 10:56:25;;;;;;;;;8.00;5.67;;;;;25.32;42.12;102239.59;5047053;28;45494;-78
2022/05/27 11:02:10;;;;;;;;;8.00;6.33;;;;;25.31;42.59;102217.03;5036981;28;45473;-79
2022/05/27 11:05:14;;;;;;;;;5.00;5.00;;;;;25.33;42.62;102225.00;5043292;28;45517;-78
2022/05/27 11:08:10;;;;;;;;;5.67;5.67;;;;;25.34;42.50;102216.72;5038151;28;46425;-78
2022/05/27 11:10:44;;;;;;;;;6.67;5.00;;;;;25.36;42.56;102219.28;5042424;28;45685;-77
2022/05/27 11:16:49;;;;;;;;;3.00;3.00;;;;;25.43;42.50;102231.31;5042369;28;50411;-78
2022/05/27 11:19:36;;;;;;;;;4.00;4.00;;;;;25.43;42.68;102225.00;5038840;28;46316;-78
2022/05/27 11:22:21;;;;;;;;;2.00;2.00;;;;;25.43;42.44;102225.88;5040604;28;45481;-78
2022/05/27 11:24:47;;;;;;;;;5.00;5.00;;;;;25.45;42.48;102225.72;5041930;28;45630;-81
2022/05/27 11:27:30;;;;;;;;;5.00;5.00;;;;;25.43;42.10;102228.59;5040844;28;45756;-81
2022/05/27 11:30:29;;;;;;;;;4.00;3.67;;;;;25.50;42.60;102226.16;5034092;28;45507;-80
2022/05/27 11:33:31;;;;;;;;;4.33;4.00;;;;;25.48;42.18;102215.44;5047022;28;45549;-82
2022/05/27 11:36:30;;;;;;;;;4.00;4.00;;;;;25.45;42.13;102212.13;5035094;28;45751;-79
2022/05/27 11:39:17;;;;;;;;;4.33;4.33;;;;;25.41;42.17;102203.41;5034000;28;45452;-78
2022/05/27 11:42:01;;;;;;;;;3.33;3.33;;;;;25.43;42.36;102197.84;5033019;28;46650;-77
2022/05/27 11:45:06;;;;;;;;;2.00;2.00;;;;;25.39;42.38;102200.84;5035724;28;45445;-78
2022/05/27 11:47:55;;;;;;;;;2.00;2.00;;;;;25.38;42.31;102206.44;5033562;28;45794;-78
2022/05/27 11:51:22;;;;;;;;;2.00;2.00;;;;;25.41;42.39;102202.56;5035421;28;45553;-79
2022/05/27 11:54:20;;;;;;;;;3.00;3.00;;;;;25.41;42.38;102206.13;5037191;28;46326;-79
2022/05/27 11:57:15;;;;;;;;;3.00;3.00;;;;;25.36;42.17;102203.00;5045440;28;45520;-78
2022/05/27 11:59:54;;;;;;;;;2.00;2.00;;;;;25.31;42.25;102192.56;5046534;28;45872;-80
2022/05/27 12:02:42;;;;;;;;;2.67;2.67;;;;;25.29;42.23;102197.28;5041701;28;45452;-77
2022/05/27 12:05:19;;;;;;;;;2.00;2.00;;;;;25.29;42.37;102196.44;5046781;28;46211;-79
2022/05/27 12:07:55;;;;;;;;;4.00;3.00;;;;;25.29;42.43;102191.00;5054155;28;45436;-78
2022/05/27 12:10:50;;;;;;;;;3.00;3.00;;;;;25.27;42.26;102189.25;5022511;28;45914;-80
2022/05/27 12:13:30;;;;;;;;;2.67;2.67;;;;;25.25;42.18;102183.13;5037763;28;45755;-79
2022/05/27 12:16:02;;;;;;;;;1.67;1.67;;;;;25.23;42.20;102187.88;5040207;28;45581;-79
2022/05/27 12:18:52;;;;;;;;;2.33;2.33;;;;;25.22;42.26;102191.56;5044703;28;45558;-79
2022/05/27 12:21:24;;;;;;;;;2.67;2.67;;;;;25.21;42.07;102191.72;5039381;28;45854;-79
2022/05/27 12:23:57;;;;;;;;;2.00;2.00;;;;;25.22;42.28;102198.88;5039340;28;45439;-78
2022/05/27 12:26:32;;;;;;;;;3.67;3.33;;;;;25.23;42.18;102195.16;5047718;28;46394;-79
2022/05/27 12:29:11;;;;;;;;;2.00;2.00;;;;;25.24;42.48;102192.28;5043346;28;45599;-80
2022/05/27 12:31:38;;;;;;;;;3.67;3.67;;;;;25.26;42.12;102190.28;5041589;28;45429;-81
2022/05/27 12:34:26;;;;;;;;;3.00;3.00;;;;;25.28;41.89;102190.13;5039637;28;45451;-79
2022/05/27 12:37:00;;;;;;;;;2.00;2.00;;;;;25.32;41.99;102183.41;5037758;28;46594;-80
2022/05/27 12:39:28;;;;;;;;;2.67;2.67;;;;;25.37;41.84;102189.25;5051789;28;45514;-80
2022/05/27 12:42:17;;;;;;;;;2.67;2.67;;;;;25.35;41.87;102195.84;5047913;28;45473;-78
2022/05/27 12:44:44;;;;;;;;;3.33;3.33;;;;;25.34;42.07;102186.81;5043749;28;45341;-81
2022/05/27 12:47:22;;;;;;;;;2.33;2.00;;;;;25.34;41.93;102191.44;5046596;28;45598;-79
2022/05/27 12:50:15;;;;;;;;;6.00;4.00;;;;;25.31;41.88;102187.13;5049702;28;45452;-81
2022/05/27 12:52:53;;;;;;;;;2.00;2.00;;;;;25.29;42.13;102185.56;5040029;28;45240;-79
2022/05/27 12:55:41;;;;;;;;;2.67;2.67;;;;;25.30;41.82;102177.25;5052140;28;45396;-80
2022/05/27 13:00:59;;;;;;;;;2.33;2.00;;;;;25.26;42.01;102173.97;5040017;28;46144;-79
2022/05/27 13:03:48;;;;;;;;;3.00;2.33;;;;;25.26;41.69;102167.69;5040717;28;45554;-79
2022/05/27 13:06:33;;;;;;;;;2.33;2.33;;;;;25.25;42.09;102155.97;5047518;28;45473;-79
2022/05/27 13:09:08;;;;;;;;;3.00;3.00;;;;;25.30;41.89;102152.78;5038930;28;46034;-78
2022/05/27 13:11:34;;;;;;;;;1.33;1.33;;;;;25.31;41.97;102145.50;5039361;28;45568;-79
2022/05/27 13:14:06;;;;;;;;;2.67;2.67;;;;;25.30;41.88;102150.06;5042383;28;45452;-80
2022/05/27 13:17:08;;;;;;;;;3.00;3.00;;;;;25.31;41.85;102150.94;5045459;28;45640;-79
2022/05/27 13:19:42;;;;;;;;;2.00;2.00;;;;;25.30;41.76;102141.09;5045996;28;47162;-79
2022/05/27 13:22:13;;;;;;;;;3.00;3.00;;;;;25.31;41.65;102145.50;5048719;28;45482;-81
2022/05/27 13:24:42;;;;;;;;;4.00;3.00;;;;;25.31;41.79;102140.94;5046800;28;45580;-81
2022/05/27 13:27:23;;;;;;;;;2.33;2.33;;;;;25.36;41.55;102140.50;5042381;28;45496;-81
2022/05/27 13:29:54;;;;;;;;;1.33;1.33;;;;;25.38;41.91;102135.78;5050105;28;47064;-81
2022/05/27 13:32:52;;;;;;;;;2.00;2.00;;;;;25.39;42.09;102130.16;5050236;28;45381;-82
2022/05/27 13:35:20;;;;;;;;;3.00;3.00;;;;;25.38;41.92;102125.75;5036440;28;47076;-83
2022/05/27 13:37:53;;;;;;;;;3.33;3.33;;;;;25.40;41.70;102133.75;5041132;28;45831;-82
2022/05/27 13:40:21;;;;;;;;;4.67;3.00;;;;;25.39;41.73;102130.16;5038330;28;46368;-82
2022/05/27 13:42:48;;;;;;;;;4.00;3.00;;;;;25.40;42.04;102133.75;5037515;28;45485;-83
2022/05/27 13:45:26;;;;;;;;;4.00;3.00;;;;;25.42;41.80;102133.63;5038070;28;45363;-81
2022/05/27 13:47:57;;;;;;;;;2.00;2.00;;;;;25.42;41.85;102131.72;5039274;28;45474;-80
2022/05/27 13:50:44;;;;;;;;;4.00;3.33;;;;;25.41;41.86;102121.03;5050721;28;45380;-79
2022/05/27 13:53:28;;;;;;;;;2.00;2.00;;;;;25.42;42.00;102112.72;5053527;28;47889;-79
2022/05/27 13:56:05;;;;;;;;;2.67;2.67;;;;;25.45;41.71;102114.28;5036450;28;45426;-79
2022/05/27 13:58:31;;;;;;;;;2.00;2.00;;;;;25.43;41.46;102109.00;5042031;28;45673;-79
2022/05/27 14:01:03;;;;;;;;;2.67;2.67;;;;;25.45;41.59;102101.56;5037379;28;46291;-79
2022/05/27 14:03:41;;;;;;;;;2.00;2.00;;;;;25.48;41.58;102112.13;5036950;28;45532;-80
2022/05/27 14:06:08;;;;;;;;;3.00;3.00;;;;;25.48;41.50;102114.84;5045582;28;45371;-80
2022/05/27 14:08:41;;;;;;;;;2.00;2.00;;;;;25.48;41.65;102109.41;5047020;28;45506;-79
2022/05/27 14:11:27;;;;;;;;;2.33;2.33;;;;;25.48;41.22;102103.97;5037239;28;45954;-79
2022/05/27 14:13:56;;;;;;;;;3.00;3.00;;;;;25.49;41.27;102110.25;5043693;28;45379;-79
2022/05/27 14:16:24;;;;;;;;;3.67;3.00;;;;;25.51;41.49;102111.81;5047109;28;45478;-78
2022/05/27 14:18:51;;;;;;;;;2.00;2.00;;;;;25.55;41.03;102106.09;5043018;28;45539;-76
2022/05/27 14:24:01;;;;;;;;;3.67;2.67;;;;;25.54;41.48;102105.22;5033175;28;45495;-77
2022/05/27 14:26:30;;;;;;;;;3.00;3.00;;;;;25.54;41.47;102102.50;5053713;28;51090;-77
2022/05/27 14:28:56;;;;;;;;;4.00;4.00;;;;;25.54;41.18;102094.34;5040216;28;45593;-78
2022/05/27 14:31:31;;;;;;;;;3.00;3.00;;;;;25.56;41.53;102102.41;5038114;28;46353;-81
2022/05/27 14:34:01;;;;;;;;;4.00;2.00;;;;;25.56;41.61;102100.56;5039235;28;45514;-81
2022/05/27 14:36:30;;;;;;;;;1.33;1.33;;;;;25.57;41.01;102091.38;5041207;28;45546;-81
2022/05/27 14:38:59;;;;;;;;;2.33;2.00;;;;;25.58;41.37;102087.66;5050413;28;45498;-81
2022/05/27 14:41:30;;;;;;;;;3.00;1.00;;;;;25.58;41.49;102097.69;5034173;28;46111;-82
2022/05/27 14:43:59;;;;;;;;;3.00;3.00;;;;;25.57;41.32;102090.50;5035121;28;45691;-81
2022/05/27 14:46:31;;;;;;;;;5.00;2.33;;;;;25.58;41.45;102090.38;5042021;28;45405;-80
2022/05/27 14:49:01;;;;;;;;;1.67;1.67;;;;;25.58;41.23;102081.38;5038889;28;45479;-82
2022/05/27 14:51:38;;;;;;;;;2.67;2.67;;;;;25.59;41.62;102088.53;5043154;28;46047;-82
2022/05/27 14:54:22;;;;;;;;;4.00;2.00;;;;;25.58;41.29;102079.50;5034357;28;45477;-81
2022/05/27 14:56:47;;;;;;;;;3.67;2.00;;;;;25.59;41.35;102070.31;5035951;28;45853;-81
2022/05/27 14:59:23;;;;;;;;;4.67;4.00;;;;;25.60;41.31;102076.63;5040086;28;46764;-81
2022/05/27 15:01:54;;;;;;;;;2.00;1.67;;;;;25.58;41.45;102076.78;5041160;28;46205;-81
2022/05/27 15:04:27;;;;;;;;;3.00;3.00;;;;;25.59;41.55;102080.38;5038397;28;45522;-79
2022/05/27 15:06:57;;;;;;;;;2.00;2.00;;;;;25.58;41.27;102073.22;5046485;28;45484;-79
2022/05/27 15:09:36;;;;;;;;;1.67;1.67;;;;;25.57;41.15;102072.34;5049803;28;45596;-76
2022/05/27 15:12:18;;;;;;;;;3.00;3.00;;;;;25.59;41.24;102077.66;5041537;28;45609;-77
2022/05/27 15:14:46;;;;;;;;;3.00;2.00;;;;;25.59;41.34;102070.31;5034287;28;45498;-78
2022/05/27 15:17:37;;;;;;;;;3.00;3.00;;;;;25.61;41.16;102062.88;5038729;28;45457;-79
2022/05/27 15:20:14;;;;;;;;;3.67;3.00;;;;;25.62;41.27;102069.16;5057040;28;45173;-80
2022/05/27 15:23:02;;;;;;;;;3.00;1.33;;;;;25.65;41.79;102064.31;5049027;28;45517;-80
2022/05/27 15:25:44;;;;;;;;;4.00;2.00;;;;;25.65;41.67;102060.72;5041566;28;45534;-79
2022/05/27 15:36:07;;;;;;;;;2.00;2.00;;;;;25.65;41.11;102053.44;5040866;28;51486;-79
2022/05/27 15:38:33;;;;;;;;;4.33;3.33;;;;;25.64;40.96;102050.84;5035455;28;45403;-79
2022/05/27 15:41:02;;;;;;;;;2.00;2.00;;;;;25.63;41.11;102043.72;5035007;28;45476;-79
2022/05/27 15:43:38;;;;;;;;;3.00;3.00;;;;;25.64;41.10;102048.13;5051347;28;47026;-80
2022/05/27 15:46:07;;;;;;;;;3.00;3.00;;;;;25.64;41.14;102042.69;5043969;28;45380;-80
2022/05/27 15:48:33;;;;;;;;;1.33;1.33;;;;;25.63;40.90;102041.00;5043904;28;45527;-80
2022/05/27 15:51:00;;;;;;;;;1.33;1.33;;;;;25.63;40.86;102046.44;5042394;28;45470;-80
2022/05/27 15:53:26;;;;;;;;;2.00;2.00;;;;;25.62;40.91;102045.56;5051065;28;45687;-80
2022/05/27 15:55:52;;;;;;;;;4.00;2.00;;;;;25.62;40.98;102039.25;5032918;28;45433;-79
2022/05/27 15:58:18;;;;;;;;;3.00;3.00;;;;;25.62;40.93;102034.69;5039430;28;45664;-81
2022/05/27 16:00:45;;;;;;;;;2.67;2.33;;;;;25.62;41.08;102042.84;5033913;28;45426;-81
2022/05/27 16:03:10;;;;;;;;;2.00;2.00;;;;;25.64;40.97;102035.41;5041155;28;46212;-80
2022/05/27 16:05:36;;;;;;;;;2.33;2.33;;;;;25.64;41.12;102031.81;5042300;28;45613;-76
2022/05/27 16:08:01;;;;;;;;;4.33;3.33;;;;;25.64;40.74;102023.66;5042561;28;45517;-75
2022/05/27 16:10:33;;;;;;;;;3.33;3.33;;;;;25.65;40.83;102023.53;5040832;28;45633;-76
2022/05/27 16:13:00;;;;;;;;;3.00;1.67;;;;;25.67;40.46;102026.09;5039633;28;45845;-80
2022/05/27 16:15:25;;;;;;;;;4.00;4.00;;;;;25.67;40.68;102023.38;5042628;28;45368;-81
2022/05/27 16:17:51;;;;;;;;;4.33;2.00;;;;;25.68;40.51;102024.22;5037748;28;45711;-79
2022/05/27 16:20:22;;;;;;;;;5.00;3.00;;;;;25.69;40.27;102024.06;5038546;28;45460;-81
2022/05/27 16:22:49;;;;;;;;;3.67;2.00;;;;;25.69;40.43;102024.06;5047221;28;45606;-80
2022/05/27 16:25:16;;;;;;;;;2.33;2.33;;;;;25.71;40.33;102021.19;5042034;28;45440;-81
2022/05/27 16:27:42;;;;;;;;;3.00;3.00;;;;;25.72;40.71;102020.19;5040915;28;45577;-81
2022/05/27 16:30:13;;;;;;;;;2.00;2.00;;;;;25.72;40.57;102021.06;5048696;28;45480;-80
2022/05/27 16:32:38;;;;;;;;;3.33;3.33;;;;;25.73;40.07;102013.72;5039079;28;47608;-81
2022/05/27 16:35:05;;;;;;;;;6.00;3.00;;;;;25.72;39.97;102025.63;5035879;28;45352;-80
2022/05/27 16:37:32;;;;;;;;;5.00;3.00;;;;;25.71;40.24;102011.16;5038530;28;45624;-81
2022/05/27 16:39:57;;;;;;;;;3.00;3.00;;;;;25.71;40.28;102005.72;5040174;28;45489;-81
2022/05/27 16:42:23;;;;;;;;;3.00;3.00;;;;;25.72;39.68;102004.75;5041716;28;45484;-80
2022/05/27 16:44:48;;;;;;;;;4.33;4.33;;;;;25.71;40.22;102007.59;5045056;28;45469;-80
2022/05/27 16:47:13;;;;;;;;;3.67;3.67;;;;;25.72;40.21;102012.91;5035332;28;45857;-80
2022/05/27 16:49:39;;;;;;;;;3.67;3.00;;;;;25.72;39.79;102012.03;5054604;28;45473;-82
2022/05/27 16:52:05;;;;;;;;;4.00;4.00;;;;;25.71;39.60;102007.59;5041131;28;45443;-81
2022/05/27 16:54:30;;;;;;;;;3.00;3.00;;;;;25.73;39.85;102016.44;5040898;28;45603;-81
2022/05/27 16:56:56;;;;;;;;;5.00;5.00;;;;;25.72;39.66;102015.63;5040006;28;45394;-82
2022/05/27 16:59:22;;;;;;;;;5.00;5.00;;;;;25.72;39.80;102009.31;5049445;28;45412;-82
2022/05/27 17:01:47;;;;;;;;;6.67;6.67;;;;;25.72;39.60;102006.59;5046034;28;46396;-81
2022/05/27 17:04:13;;;;;;;;;5.67;4.00;;;;;25.71;39.54;102010.31;5042615;28;45586;-82
2022/05/27 17:06:39;;;;;;;;;5.00;4.67;;;;;25.70;39.06;102008.63;5038486;28;45546;-82
2022/05/27 17:09:04;;;;;;;;;6.00;6.00;;;;;25.72;39.14;102003.88;5050058;28;45590;-79
2022/05/27 17:11:30;;;;;;;;;5.33;4.67;;;;;25.72;39.28;102010.19;5044789;28;46727;-82
2022/05/27 17:13:55;;;;;;;;;3.67;3.67;;;;;25.71;38.89;102010.31;5035932;28;45400;-82
2022/05/27 17:16:21;;;;;;;;;6.67;6.67;;;;;25.71;39.28;102011.16;5046293;28;45462;-82
2022/05/27 17:18:46;;;;;;;;;4.00;4.00;;;;;25.72;38.89;102009.31;5036358;28;45585;-76
2022/05/27 17:21:12;;;;;;;;;6.00;6.00;;;;;25.73;38.97;102013.72;5036389;28;46122;-78
2022/05/27 17:23:37;;;;;;;;;4.67;4.67;;;;;25.71;38.80;102003.00;5036622;28;45620;-79
2022/05/27 17:26:02;;;;;;;;;4.00;4.00;;;;;25.71;38.72;102000.28;5039336;28;45457;-79
2022/05/27 17:28:28;;;;;;;;;2.00;2.00;;;;;25.72;39.11;102012.03;5044580;28;46379;-80
2022/05/27 17:30:53;;;;;;;;;5.00;5.00;;;;;25.71;38.52;102008.44;5040651;28;45710;-80
2022/05/27 17:33:19;;;;;;;;;8.33;8.33;;;;;25.71;38.89;102013.88;5045047;28;45466;-77
2022/05/27 17:35:45;;;;;;;;;6.33;4.00;;;;;25.72;38.67;102012.91;5045292;28;45487;-79
2022/05/27 17:38:11;;;;;;;;;5.00;5.00;;;;;25.73;38.74;102011.00;5046366;28;45456;-79
2022/05/27 17:40:36;;;;;;;;;4.33;4.33;;;;;25.70;38.54;101997.75;5041594;28;46212;-78
2022/05/27 17:43:02;;;;;;;;;5.33;5.33;;;;;25.69;38.78;102006.88;5043540;28;45450;-79
2022/05/27 17:45:28;;;;;;;;;5.67;5.67;;;;;25.67;38.33;102007.06;5044862;28;45545;-78
2022/05/27 17:53:24;;;;;;;;;4.00;3.67;;;;;25.63;38.28;102002.94;5045252;28;45460;-79
2022/05/27 17:55:51;;;;;;;;;6.33;4.33;;;;;25.62;38.60;102004.78;5047790;28;45458;-79
2022/05/27 17:58:17;;;;;;;;;5.00;3.33;;;;;25.63;38.11;102005.66;5037291;27;45753;-78
2022/05/27 18:00:42;;;;;;;;;6.33;6.00;;;;;25.64;38.51;101999.19;5041682;28;50974;-80
2022/05/27 18:03:07;;;;;;;;;5.00;5.00;;;;;25.63;38.60;102005.66;5048155;28;45672;-78
2022/05/27 18:05:33;;;;;;;;;6.00;6.00;;;;;25.65;38.30;102009.06;5040344;28;46041;-80
2022/05/27 18:07:59;;;;;;;;;4.00;4.00;;;;;25.63;38.18;102009.22;5037943;28;45597;-78
2022/05/27 18:10:24;;;;;;;;;4.00;4.00;;;;;25.63;38.08;102006.50;5045304;28;48825;-79
2022/05/27 18:12:50;;;;;;;;;5.00;5.00;;;;;25.63;37.72;102003.78;5036968;28;45444;-79
2022/05/27 18:15:17;;;;;;;;;6.00;5.00;;;;;25.61;37.82;102003.09;5036985;28;45317;-78
2022/05/27 18:17:43;;;;;;;;;3.33;3.33;;;;;25.60;37.97;102003.22;5050262;28;45750;-80
2022/05/27 18:20:09;;;;;;;;;3.00;3.00;;;;;25.59;38.01;102005.09;5044758;28;47174;-80
2022/05/27 18:22:35;;;;;;;;;5.00;5.00;;;;;25.58;38.12;102014.25;5044012;28;45442;-78
2022/05/27 18:25:00;;;;;;;;;4.00;4.00;;;;;25.58;37.81;102016.13;5039966;28;45321;-79
2022/05/27 18:27:26;;;;;;;;;4.00;4.00;;;;;25.57;37.86;102017.97;5042423;28;45641;-78
2022/05/27 18:29:51;;;;;;;;;6.00;5.00;;;;;25.57;37.84;102017.97;5043172;28;45478;-78
2022/05/27 18:32:17;;;;;;;;;5.00;5.00;;;;;25.53;37.57;102009.25;5050408;28;48999;-77
2022/05/27 18:34:42;;;;;;;;;5.67;5.67;;;;;25.53;37.94;102013.81;5048089;28;45508;-78
2022/05/27 18:37:07;;;;;;;;;5.00;4.00;;;;;25.54;37.43;102015.53;5050253;28;45381;-77
2022/05/27 18:39:33;;;;;;;;;9.00;6.00;;;;;25.58;37.64;102018.84;5034062;28;46349;-78
2022/05/27 18:41:58;;;;;;;;;6.67;5.33;;;;;25.64;37.23;102020.94;5037200;28;49638;-77
2022/05/27 18:44:23;;;;;;;;;7.00;6.00;;;;;25.68;37.52;102018.78;5036678;28;46676;-78
2022/05/27 18:46:49;;;;;;;;;5.33;5.00;;;;;25.69;37.42;102013.19;5035538;28;45464;-78
2022/05/27 18:49:14;;;;;;;;;4.33;4.33;;;;;25.65;37.37;102018.09;5039988;28;46211;-77
2022/05/27 18:51:40;;;;;;;;;8.00;6.33;;;;;25.64;36.65;102021.81;5036157;28;45388;-78
2022/05/27 18:54:05;;;;;;;;;5.67;5.67;;;;;25.62;36.56;102026.53;5036821;28;45380;-79
2022/05/27 18:56:31;;;;;;;;;5.67;5.67;;;;;25.60;37.14;102022.25;5036612;28;45368;-78
2022/05/27 18:58:56;;;;;;;;;5.33;5.00;;;;;25.57;36.88;102026.13;5056558;27;45392;-78
2022/05/27 19:01:21;;;;;;;;;7.00;4.00;;;;;25.55;36.87;102025.44;5042561;28;51572;-78
2022/05/27 19:03:46;;;;;;;;;6.00;4.00;;;;;25.53;37.13;102032.84;5042698;28;50820;-77
2022/05/27 19:06:12;;;;;;;;;6.00;6.00;;;;;25.53;36.51;102028.28;5041313;28;45398;-78
2022/05/27 19:08:37;;;;;;;;;6.00;6.00;;;;;25.53;36.61;102021.97;5043447;28;45851;-78
2022/05/27 19:11:04;;;;;;;;;6.00;4.00;;;;;25.52;36.64;102029.28;5046779;28;45373;-78
2022/05/27 19:13:31;;;;;;;;;5.00;5.00;;;;;25.51;36.41;102022.13;5040860;28;45366;-78
2022/05/27 19:15:57;;;;;;;;;6.33;6.33;;;;;25.51;36.32;102026.72;5044612;28;45625;-77
2022/05/27 19:18:24;;;;;;;;;3.67;3.67;;;;;25.55;35.96;102029.97;5040519;28;46200;-78
2022/05/27 19:23:34;;;;;;;;;8.00;5.00;;;;;25.55;35.93;102035.41;5047374;28;45370;-75
2022/05/27 19:26:00;;;;;;;;;4.33;4.33;;;;;25.56;36.02;102043.47;5039114;28;45470;-75
2022/05/27 19:28:25;;;;;;;;;6.00;4.33;;;;;25.58;35.89;102048.75;5036810;28;45480;-77
2022/05/27 19:30:51;;;;;;;;;5.00;3.33;;;;;25.55;35.67;102044.47;5040751;28;45388;-77
2022/05/27 19:33:17;;;;;;;;;6.00;6.00;;;;;25.50;35.90;102047.59;5039372;28;45541;-77
2022/05/27 19:35:44;;;;;;;;;7.33;5.00;;;;;25.49;36.33;102048.59;5035965;28;45407;-78
2022/05/27 19:38:12;;;;;;;;;5.33;5.33;;;;;25.45;36.58;102047.19;5033287;28;45527;-77
2022/05/27 19:40:37;;;;;;;;;5.00;5.00;;;;;25.45;36.63;102041.75;5067894;27;45835;-78
2022/05/27 19:43:03;;;;;;;;;5.33;5.33;;;;;25.44;36.65;102041.91;5063480;27;45404;-79
2022/05/27 19:45:29;;;;;;;;;4.00;4.00;;;;;25.44;36.84;102047.34;5062932;28;45443;-77
2022/05/27 19:47:55;;;;;;;;;5.33;5.00;;;;;25.45;37.11;102052.63;5068752;28;47038;-77
2022/05/27 19:50:20;;;;;;;;;4.00;4.00;;;;;25.44;36.73;102053.66;5055238;28;45480;-79
2022/05/27 19:52:45;;;;;;;;;4.00;4.00;;;;;25.42;37.01;102055.63;5069206;27;45450;-78
2022/05/27 19:55:12;;;;;;;;;4.33;4.33;;;;;25.43;37.22;102065.53;5058627;28;45349;-77
2022/05/27 20:00:22;;;;;;;;;5.33;5.33;;;;;25.43;37.26;102067.38;5063624;28;45557;-78
2022/05/27 20:05:31;;;;;;;;;3.67;3.67;;;;;25.41;37.45;102078.41;5058870;28;45495;-78
2022/05/27 20:07:57;;;;;;;;;8.00;8.00;;;;;25.46;37.47;102084.22;5064946;28;46361;-79